< < Back
Terminal Aerodrome Forecast


Current Version              Previous Versions:   1  2  3  4  5  6  7  8  9  

Terminal Aerodrome Forecast

066
FTUS42 KCHS 302325 AAD
TAFCHS
TAF AMD
KCHS 302325Z 3023/0124 VRB10G20KT 6SM -TSRA BR SCT020CB BKN050
     FM010030 24006KT P6SM FEW040 BKN150
     FM011400 26011KT P6SM SCT040=

Latest METAR

516
SAUS80 KWBC 010500 RRH
MTRCHS
METAR KCHS 010456Z 23004KT 10SM FEW180 SCT250 22/21 A3000 RMK AO2 SLP159
T02220206 403330217


USA.gov is the U.S. government's official web portal to all federal, state and local government web resources and services.